createdAt,value
2019-05-06T00:01:36.211Z,100595.34
2019-05-06T00:04:06.054Z,100590.61
2019-05-06T00:06:36.075Z,100592.39
2019-05-06T00:09:06.793Z,100591.80
2019-05-06T00:11:36.967Z,100594.45
2019-05-06T00:14:07.005Z,100588.70
2019-05-06T00:16:36.945Z,100593.15
2019-05-06T00:19:06.881Z,100585.84
2019-05-06T00:21:36.816Z,100582.70
2019-05-06T00:24:06.739Z,100581.97
2019-05-06T00:26:56.931Z,100589.49
2019-05-06T00:29:26.662Z,100587.23
2019-05-06T00:31:56.600Z,100588.16
2019-05-06T00:34:26.524Z,100583.09
2019-05-06T00:36:56.468Z,100582.27
2019-05-06T00:39:28.034Z,100577.31
2019-05-06T00:42:05.558Z,100579.98
2019-05-06T00:44:35.584Z,100579.61
2019-05-06T00:47:05.513Z,100580.79
2019-05-06T00:49:35.549Z,100578.92
2019-05-06T00:52:05.486Z,100580.79
2019-05-06T00:54:36.636Z,100575.28
2019-05-06T00:57:06.582Z,100573.67
2019-05-06T00:59:36.553Z,100571.02
2019-05-06T01:02:06.443Z,100566.92
2019-05-06T01:04:37.547Z,100563.50
2019-05-06T01:07:07.341Z,100566.21
2019-05-06T01:09:37.278Z,100566.55
2019-05-06T01:12:07.675Z,100568.77
2019-05-06T01:14:47.986Z,100565.75
2019-05-06T01:17:17.889Z,100567.64
2019-05-06T01:19:47.855Z,100568.05
2019-05-06T01:22:17.787Z,100568.63
2019-05-06T01:24:47.726Z,100563.04
2019-05-06T01:27:17.755Z,100576.99
2019-05-06T01:29:47.596Z,100568.34
2019-05-06T01:32:17.520Z,100565.79
2019-05-06T01:34:49.011Z,100567.20
2019-05-06T01:37:20.573Z,100568.09
2019-05-06T01:39:54.898Z,100563.77
2019-05-06T01:42:26.471Z,100566.50
2019-05-06T01:44:56.414Z,100565.52
2019-05-06T01:47:26.340Z,100564.62
2019-05-06T01:49:56.231Z,100554.72
2019-05-06T01:52:26.209Z,100556.60
2019-05-06T01:54:55.971Z,100545.40
2019-05-06T01:57:25.979Z,100549.23
2019-05-06T01:59:56.017Z,100554.34
2019-05-06T02:02:25.945Z,100560.14
2019-05-06T02:04:55.782Z,100556.05
2019-05-06T02:07:26.075Z,100556.34
2019-05-06T02:09:56.061Z,100549.56
2019-05-06T02:12:26.008Z,100546.72
2019-05-06T02:14:55.928Z,100548.31
2019-05-06T02:17:25.862Z,100551.33
2019-05-06T02:19:55.801Z,100551.20
2019-05-06T02:22:36.371Z,100547.86
2019-05-06T02:25:09.784Z,100548.78
2019-05-06T02:27:39.824Z,100555.99
2019-05-06T02:30:20.286Z,100559.45
2019-05-06T02:33:08.248Z,100558.05
2019-05-06T02:35:39.791Z,100554.69
2019-05-06T02:38:11.286Z,100547.19
2019-05-06T02:40:42.659Z,100541.94
2019-05-06T02:43:13.595Z,100547.47
2019-05-06T02:45:43.589Z,100545.24
2019-05-06T02:48:15.195Z,100543.08
2019-05-06T02:50:46.698Z,100554.05
2019-05-06T02:53:19.274Z,100552.22
2019-05-06T02:55:49.185Z,100552.40
2019-05-06T02:58:19.135Z,100549.67
2019-05-06T03:00:49.062Z,100547.08
2019-05-06T03:03:19.205Z,100553.22
2019-05-06T03:05:49.248Z,100551.05
2019-05-06T03:08:19.069Z,100547.56
2019-05-06T03:10:49.014Z,100542.59
2019-05-06T03:13:18.943Z,100543.92
2019-05-06T03:15:48.882Z,100553.39
2019-05-06T03:18:23.291Z,100548.39
2019-05-06T03:20:59.358Z,100545.71
2019-05-06T03:23:34.465Z,100541.33
2019-05-06T03:26:05.812Z,100545.33
2019-05-06T03:28:34.305Z,100552.53
2019-05-06T03:31:06.932Z,100559.05
2019-05-06T03:33:55.166Z,100556.78
2019-05-06T03:36:18.829Z,100556.03
2019-05-06T03:38:39.041Z,100563.28
2019-05-06T03:41:08.987Z,100561.91
2019-05-06T03:43:43.074Z,100554.97
2019-05-06T03:46:23.214Z,100555.37
2019-05-06T03:49:03.609Z,100552.31
2019-05-06T03:51:34.184Z,100562.81
2019-05-06T03:54:04.957Z,100561.31
2019-05-06T03:56:36.717Z,100554.93
2019-05-06T03:59:08.346Z,100551.42
2019-05-06T04:01:38.642Z,100555.87
2019-05-06T04:04:08.566Z,100555.59
2019-05-06T04:06:38.599Z,100551.20
2019-05-06T04:09:08.506Z,100554.75
2019-05-06T04:11:43.055Z,100553.14
2019-05-06T04:14:14.057Z,100547.13
2019-05-06T04:16:54.527Z,100548.78
2019-05-06T04:19:33.490Z,100546.67
2019-05-06T04:22:05.119Z,100549.56
2019-05-06T04:24:53.976Z,100554.80
2019-05-06T04:27:33.566Z,100554.67
2019-05-06T04:30:04.662Z,100553.39
2019-05-06T04:32:35.330Z,100558.44
2019-05-06T04:35:05.684Z,100551.81
2019-05-06T04:37:35.811Z,100546.00
2019-05-06T04:40:07.499Z,100549.37
2019-05-06T04:42:38.859Z,100549.98
2019-05-06T04:45:09.193Z,100552.03
2019-05-06T04:47:39.124Z,100551.52
2019-05-06T04:50:09.583Z,100551.03
2019-05-06T04:52:39.524Z,100545.05
2019-05-06T04:55:09.729Z,100545.59
2019-05-06T04:57:43.738Z,100539.57
2019-05-06T05:00:13.256Z,100544.33
2019-05-06T05:02:46.447Z,100541.81
2019-05-06T05:05:15.019Z,100542.77
2019-05-06T05:07:44.959Z,100539.85
2019-05-06T05:10:16.625Z,100540.45
2019-05-06T05:13:03.852Z,100533.30
2019-05-06T05:15:41.838Z,100534.50
2019-05-06T05:18:16.390Z,100537.84
2019-05-06T05:20:46.915Z,100542.59
2019-05-06T05:23:16.292Z,100538.50
2019-05-06T05:25:46.307Z,100540.97
2019-05-06T05:28:16.234Z,100541.80
2019-05-06T05:30:46.077Z,100543.19
2019-05-06T05:33:16.214Z,100534.84
2019-05-06T05:35:46.069Z,100537.06
2019-05-06T05:38:17.099Z,100537.82
2019-05-06T05:40:47.042Z,100540.78
2019-05-06T05:43:32.614Z,100540.20
2019-05-06T05:46:03.273Z,100538.09
2019-05-06T05:48:34.123Z,100533.62
2019-05-06T05:51:03.443Z,100541.60
2019-05-06T05:53:33.514Z,100527.66
2019-05-06T05:56:04.129Z,100534.06
2019-05-06T05:58:34.917Z,100523.73
2019-05-06T06:01:04.820Z,100534.41
2019-05-06T06:03:34.748Z,100528.09
2019-05-06T06:06:04.596Z,100523.14
2019-05-06T06:08:36.912Z,100523.97
2019-05-06T06:11:07.826Z,100524.95
2019-05-06T06:13:37.717Z,100531.83
2019-05-06T06:16:09.240Z,100530.00
2019-05-06T06:18:55.838Z,100530.51
2019-05-06T06:21:32.136Z,100527.67
2019-05-06T06:24:03.689Z,100528.63
2019-05-06T06:26:34.131Z,100525.92
2019-05-06T06:29:04.067Z,100525.05
2019-05-06T06:31:36.246Z,100525.64
2019-05-06T06:34:07.731Z,100517.53
2019-05-06T06:36:57.498Z,100522.53
2019-05-06T06:39:29.898Z,100519.60
2019-05-06T06:41:59.916Z,100521.69
2019-05-06T06:44:33.107Z,100519.08
2019-05-06T06:47:03.369Z,100520.61
2019-05-06T06:49:33.417Z,100504.46
2019-05-06T06:52:05.657Z,100504.21
2019-05-06T06:54:35.018Z,100510.97
2019-05-06T06:57:09.430Z,100508.77
2019-05-06T06:59:42.558Z,100504.78
2019-05-06T07:02:32.876Z,100495.64
2019-05-06T07:05:21.595Z,100504.59
2019-05-06T07:07:46.613Z,100498.11
2019-05-06T07:10:32.407Z,100504.27
2019-05-06T07:13:03.104Z,100508.25
2019-05-06T07:15:33.759Z,100500.80
2019-05-06T07:18:03.852Z,100499.17
2019-05-06T07:20:35.432Z,100497.55
2019-05-06T07:23:22.233Z,100506.61
2019-05-06T07:25:53.785Z,100501.93
2019-05-06T07:28:24.876Z,100494.52
2019-05-06T07:30:55.416Z,100499.76
2019-05-06T07:33:25.572Z,100493.14
2019-05-06T07:35:55.482Z,100497.88
2019-05-06T07:38:26.929Z,100497.02
2019-05-06T07:41:05.111Z,100492.63
2019-05-06T07:43:55.154Z,100497.19
2019-05-06T07:46:42.729Z,100487.89
2019-05-06T07:49:13.022Z,100479.68
2019-05-06T07:51:42.968Z,100478.86
2019-05-06T07:54:12.891Z,100467.11
2019-05-06T07:56:42.985Z,100470.66
2019-05-06T07:59:12.923Z,100472.81
2019-05-06T08:01:44.200Z,100460.19
2019-05-06T08:04:14.267Z,100464.08
2019-05-06T08:06:44.306Z,100452.82
2019-05-06T08:09:14.238Z,100461.98
2019-05-06T08:11:44.186Z,100448.79
2019-05-06T08:14:14.114Z,100455.91
2019-05-06T08:16:45.679Z,100451.89
2019-05-06T08:19:15.718Z,100450.16
2019-05-06T08:21:47.288Z,100450.51
2019-05-06T08:24:17.222Z,100440.21
2019-05-06T08:26:48.172Z,100458.13
2019-05-06T08:29:18.832Z,100455.17
2019-05-06T08:31:48.760Z,100451.90
2019-05-06T08:34:18.702Z,100457.69
2019-05-06T08:36:50.281Z,100437.42
2019-05-06T08:39:22.022Z,100440.23
2019-05-06T08:41:52.900Z,100447.17
2019-05-06T08:44:23.052Z,100449.14
2019-05-06T08:46:54.107Z,100429.99
2019-05-06T08:49:24.038Z,100431.36
2019-05-06T08:51:55.614Z,100426.25
2019-05-06T08:54:36.083Z,100426.31
2019-05-06T08:57:06.018Z,100433.79
2019-05-06T08:59:35.948Z,100443.46
2019-05-06T09:02:06.914Z,100429.69
2019-05-06T09:04:36.939Z,100430.98
2019-05-06T09:07:06.974Z,100417.16
2019-05-06T09:09:36.925Z,100418.33
2019-05-06T09:12:06.743Z,100415.92
2019-05-06T09:14:36.688Z,100411.92
2019-05-06T09:17:07.539Z,100410.37
2019-05-06T09:19:37.581Z,100410.81
2019-05-06T09:22:07.401Z,100409.41
2019-05-06T09:24:37.344Z,100406.11
2019-05-06T09:27:14.844Z,100394.13
2019-05-06T09:29:46.416Z,100403.30
2019-05-06T09:32:17.828Z,100400.00
2019-05-06T09:34:58.165Z,100406.71
2019-05-06T09:37:27.502Z,100399.51
2019-05-06T09:39:57.305Z,100399.56
2019-05-06T09:42:27.440Z,100414.48
2019-05-06T09:44:57.386Z,100391.88
2019-05-06T09:47:32.988Z,100395.03
2019-05-06T09:50:03.291Z,100395.66
2019-05-06T09:52:33.457Z,100385.90
2019-05-06T09:55:04.319Z,100380.52
2019-05-06T09:57:35.760Z,100381.92
2019-05-06T10:00:07.753Z,100372.91
2019-05-06T10:02:39.204Z,100378.94
2019-05-06T10:05:08.652Z,100378.94
2019-05-06T10:07:38.556Z,100379.97
2019-05-06T10:10:08.894Z,100366.22
2019-05-06T10:12:38.832Z,100368.00
2019-05-06T10:15:09.031Z,100370.07
2019-05-06T10:17:38.307Z,100363.97
2019-05-06T10:20:08.381Z,100366.08
2019-05-06T10:22:37.780Z,100368.28
2019-05-06T10:25:07.782Z,100357.73
2019-05-06T10:27:38.569Z,100366.58
2019-05-06T10:30:12.971Z,100359.23
2019-05-06T10:32:46.286Z,100367.55
2019-05-06T10:35:16.635Z,100359.49
2019-05-06T10:37:47.379Z,100365.99
2019-05-06T10:40:25.711Z,100365.79
2019-05-06T10:43:07.188Z,100363.40
2019-05-06T10:45:37.136Z,100369.19
2019-05-06T10:48:07.063Z,100359.91
2019-05-06T10:50:41.819Z,100360.41
2019-05-06T10:53:19.047Z,100351.15
2019-05-06T10:55:56.818Z,100354.75
2019-05-06T10:58:26.954Z,100353.08
2019-05-06T11:01:12.581Z,100351.33
2019-05-06T11:03:43.365Z,100343.39
2019-05-06T11:06:14.977Z,100344.54
2019-05-06T11:08:45.111Z,100353.81
2019-05-06T11:11:24.834Z,100341.31
2019-05-06T11:13:46.821Z,100346.11
2019-05-06T11:16:17.113Z,100335.75
2019-05-06T11:18:47.062Z,100344.26
2019-05-06T11:21:16.926Z,100340.98
2019-05-06T11:23:47.016Z,100333.27
2019-05-06T11:26:17.094Z,100324.49
2019-05-06T11:28:48.675Z,100327.66
2019-05-06T11:31:29.267Z,100333.08
2019-05-06T11:34:07.050Z,100336.38
2019-05-06T11:36:42.588Z,100318.83
2019-05-06T11:39:14.221Z,100321.69
2019-05-06T11:41:59.193Z,100329.32
2019-05-06T11:44:15.791Z,100306.13
2019-05-06T11:46:47.462Z,100305.66
2019-05-06T11:49:17.397Z,100299.20
2019-05-06T11:51:47.337Z,100301.44
2019-05-06T11:54:20.734Z,100304.54
2019-05-06T11:56:52.619Z,100309.50
2019-05-06T11:59:22.732Z,100290.92
2019-05-06T12:02:03.748Z,100297.73
2019-05-06T12:04:33.787Z,100297.81
2019-05-06T12:07:11.040Z,100294.31
2019-05-06T12:09:35.544Z,100292.67
2019-05-06T12:12:05.422Z,100287.55
2019-05-06T12:14:35.357Z,100290.06
2019-05-06T12:17:06.370Z,100282.04
2019-05-06T12:19:36.428Z,100278.59
2019-05-06T12:22:06.391Z,100291.51
2019-05-06T12:24:36.325Z,100284.36
2019-05-06T12:27:06.290Z,100283.41
2019-05-06T12:29:38.362Z,100262.52
2019-05-06T12:32:15.227Z,100261.52
2019-05-06T12:34:45.450Z,100254.71
2019-05-06T12:37:16.373Z,100267.32
2019-05-06T12:39:47.797Z,100283.39
2019-05-06T12:42:29.086Z,100269.20
2019-05-06T12:45:03.291Z,100262.15
2019-05-06T12:47:34.071Z,100266.79
2019-05-06T12:50:05.176Z,100261.95
2019-05-06T12:52:35.070Z,100258.61
2019-05-06T12:55:20.365Z,100261.17
2019-05-06T12:57:38.929Z,100253.12
2019-05-06T13:00:13.064Z,100254.39
2019-05-06T13:02:43.857Z,100252.06
2019-05-06T13:05:15.574Z,100250.29
2019-05-06T13:07:47.154Z,100252.98
2019-05-06T13:10:19.025Z,100241.96
2019-05-06T13:12:50.612Z,100250.89
2019-05-06T13:15:20.632Z,100249.17
2019-05-06T13:17:50.571Z,100255.78
2019-05-06T13:20:22.786Z,100253.39
2019-05-06T13:22:53.848Z,100245.62
2019-05-06T13:25:23.769Z,100245.96
2019-05-06T13:27:53.708Z,100240.00
2019-05-06T13:30:24.349Z,100229.17
2019-05-06T13:33:04.704Z,100240.22
2019-05-06T13:35:35.055Z,100236.69
2019-05-06T13:38:05.087Z,100222.81
2019-05-06T13:40:39.655Z,100226.09
2019-05-06T13:43:14.053Z,100224.95
2019-05-06T13:46:02.961Z,100227.80
2019-05-06T13:48:50.238Z,100225.08
2019-05-06T13:51:24.769Z,100222.47
2019-05-06T13:53:55.733Z,100220.53
2019-05-06T13:56:25.778Z,100216.64
2019-05-06T13:58:55.698Z,100216.73
2019-05-06T14:01:43.854Z,100227.55
2019-05-06T14:04:16.953Z,100217.84
2019-05-06T14:06:46.899Z,100219.55
2019-05-06T14:09:28.690Z,100218.32
2019-05-06T14:11:48.501Z,100215.86
2019-05-06T14:14:18.532Z,100210.91
2019-05-06T14:16:48.570Z,100208.14
2019-05-06T14:19:18.697Z,100212.76
2019-05-06T14:21:48.648Z,100203.62
2019-05-06T14:24:18.781Z,100202.57
2019-05-06T14:26:59.256Z,100200.05
2019-05-06T14:29:42.124Z,100197.91
2019-05-06T14:32:14.851Z,100192.05
2019-05-06T14:34:43.909Z,100184.98
2019-05-06T14:37:13.853Z,100183.16
2019-05-06T14:39:55.543Z,100182.67
2019-05-06T14:42:22.035Z,100181.53
2019-05-06T14:44:51.502Z,100168.50
2019-05-06T14:47:26.034Z,100177.77
2019-05-06T14:49:55.974Z,100177.68
2019-05-06T14:52:25.956Z,100173.00
2019-05-06T14:54:57.468Z,100164.77
2019-05-06T14:57:27.506Z,100162.84
2019-05-06T14:59:57.454Z,100162.64
2019-05-06T15:02:28.297Z,100160.15
2019-05-06T15:04:58.449Z,100156.44
2019-05-06T15:07:28.382Z,100158.75
2019-05-06T15:10:16.557Z,100147.47
2019-05-06T15:12:33.329Z,100155.84
2019-05-06T15:15:03.805Z,100144.18
2019-05-06T15:17:36.655Z,100143.98
2019-05-06T15:20:06.758Z,100134.22
2019-05-06T15:22:36.778Z,100144.38
2019-05-06T15:25:07.737Z,100148.84
2019-05-06T15:27:37.587Z,100141.08
2019-05-06T15:30:12.288Z,100143.50
2019-05-06T15:32:41.636Z,100144.16
2019-05-06T15:35:22.810Z,100139.00
2019-05-06T15:37:54.387Z,100142.72
2019-05-06T15:40:32.382Z,100131.66
2019-05-06T15:42:56.214Z,100140.14
2019-05-06T15:45:28.705Z,100133.68
2019-05-06T15:47:58.723Z,100137.42
2019-05-06T15:50:28.768Z,100131.05
2019-05-06T15:52:58.787Z,100134.84
2019-05-06T15:55:32.139Z,100132.53
2019-05-06T15:58:03.442Z,100135.02
2019-05-06T16:00:33.322Z,100141.94
2019-05-06T16:03:03.965Z,100133.30
2019-05-06T16:05:34.460Z,100135.20
2019-05-06T16:08:03.858Z,100137.23
2019-05-06T16:10:50.383Z,100133.98
2019-05-06T16:13:05.467Z,100133.47
2019-05-06T16:15:35.586Z,100135.59
2019-05-06T16:18:05.522Z,100134.37
2019-05-06T16:20:35.549Z,100131.89
2019-05-06T16:23:10.406Z,100130.72
2019-05-06T16:25:42.307Z,100128.81
2019-05-06T16:28:12.910Z,100130.14
2019-05-06T16:30:43.048Z,100131.15
2019-05-06T16:33:15.954Z,100131.91
2019-05-06T16:35:44.673Z,100132.58
2019-05-06T16:38:14.869Z,100135.50
2019-05-06T16:40:45.425Z,100138.84
2019-05-06T16:43:16.733Z,100138.79
2019-05-06T16:45:46.659Z,100133.41
2019-05-06T16:48:16.597Z,100140.63
2019-05-06T16:50:47.615Z,100135.34
2019-05-06T16:53:18.005Z,100141.90
2019-05-06T16:56:02.238Z,100133.23
2019-05-06T16:58:33.913Z,100140.36
2019-05-06T17:01:04.039Z,100132.88
2019-05-06T17:03:42.813Z,100139.81
2019-05-06T17:06:22.908Z,100136.88
2019-05-06T17:08:54.128Z,100129.78
2019-05-06T17:11:30.279Z,100135.81
2019-05-06T17:13:55.551Z,100137.27
2019-05-06T17:16:25.578Z,100132.23
2019-05-06T17:18:56.781Z,100129.93
2019-05-06T17:21:27.425Z,100138.56
2019-05-06T17:23:57.315Z,100140.22
2019-05-06T17:26:27.361Z,100139.71
2019-05-06T17:29:02.555Z,100140.33
2019-05-06T17:31:39.001Z,100148.09
2019-05-06T17:34:27.129Z,100146.00
2019-05-06T17:36:58.709Z,100145.83
2019-05-06T17:39:29.388Z,100145.61
2019-05-06T17:41:59.636Z,100152.75
2019-05-06T17:44:29.543Z,100152.29
2019-05-06T17:47:07.683Z,100153.15
2019-05-06T17:49:39.271Z,100153.20
2019-05-06T17:52:14.003Z,100160.98
2019-05-06T17:54:43.982Z,100151.69
2019-05-06T17:57:13.918Z,100154.66
2019-05-06T17:59:43.955Z,100153.59
2019-05-06T18:02:15.479Z,100150.32
2019-05-06T18:04:45.569Z,100153.35
2019-05-06T18:07:15.507Z,100157.20
2019-05-06T18:09:47.898Z,100157.47
2019-05-06T18:12:18.867Z,100151.98
2019-05-06T18:14:50.426Z,100156.70
2019-05-06T18:17:22.025Z,100162.75
2019-05-06T18:19:52.055Z,100159.19
2019-05-06T18:22:22.742Z,100161.39
2019-05-06T18:24:52.829Z,100165.80
2019-05-06T18:27:22.810Z,100170.45
2019-05-06T18:29:53.366Z,100158.08
2019-05-06T18:32:23.532Z,100164.62
2019-05-06T18:34:53.474Z,100162.16
2019-05-06T18:37:24.031Z,100157.80
2019-05-06T18:39:53.268Z,100157.80
2019-05-06T18:42:25.552Z,100155.66
2019-05-06T18:44:55.496Z,100156.19
2019-05-06T18:47:25.514Z,100154.28
2019-05-06T18:49:55.466Z,100158.66
2019-05-06T18:52:25.386Z,100154.83
2019-05-06T18:54:55.339Z,100154.83
2019-05-06T18:57:25.330Z,100159.44
2019-05-06T18:59:56.203Z,100160.52
2019-05-06T19:02:27.011Z,100155.78
2019-05-06T19:04:59.338Z,100149.41
2019-05-06T19:07:29.280Z,100154.30
2019-05-06T19:10:12.965Z,100153.98
2019-05-06T19:12:42.908Z,100156.66
2019-05-06T19:15:13.204Z,100159.33
2019-05-06T19:17:44.350Z,100156.58
2019-05-06T19:20:15.617Z,100152.20
2019-05-06T19:22:45.661Z,100156.73
2019-05-06T19:25:15.932Z,100159.70
2019-05-06T19:27:45.935Z,100149.84
2019-05-06T19:30:16.285Z,100149.02
2019-05-06T19:32:46.473Z,100154.50
2019-05-06T19:35:16.673Z,100153.06
2019-05-06T19:37:46.715Z,100157.92
2019-05-06T19:40:16.623Z,100156.21
2019-05-06T19:42:50.022Z,100156.18
2019-05-06T19:45:18.185Z,100150.94
2019-05-06T19:47:48.016Z,100153.33
2019-05-06T19:50:20.995Z,100153.73
2019-05-06T19:52:49.838Z,100156.73
2019-05-06T19:55:22.967Z,100153.13
2019-05-06T19:57:52.679Z,100148.95
2019-05-06T20:00:23.263Z,100147.11
2019-05-06T20:02:53.301Z,100153.41
2019-05-06T20:05:24.867Z,100152.62
2019-05-06T20:07:59.415Z,100159.17
2019-05-06T20:10:47.549Z,100153.33
2019-05-06T20:13:20.672Z,100137.19
2019-05-06T20:15:49.155Z,100144.41
2019-05-06T20:18:19.201Z,100146.08
2019-05-06T20:20:49.099Z,100148.66
2019-05-06T20:23:19.060Z,100144.84
2019-05-06T20:25:49.109Z,100143.20
2019-05-06T20:28:20.028Z,100143.54
2019-05-06T20:30:52.899Z,100145.47
2019-05-06T20:33:22.996Z,100154.56
2019-05-06T20:35:53.922Z,100152.92
2019-05-06T20:38:23.786Z,100154.27
2019-05-06T20:40:53.720Z,100163.05
2019-05-06T20:43:24.138Z,100164.42
2019-05-06T20:45:54.104Z,100164.69
2019-05-06T20:48:24.015Z,100158.65
2019-05-06T20:50:53.867Z,100162.49
2019-05-06T20:53:23.695Z,100163.03
2019-05-06T20:55:53.634Z,100166.06
2019-05-06T20:58:23.563Z,100165.77
2019-05-06T21:00:53.505Z,100166.03
2019-05-06T21:03:23.539Z,100165.20
2019-05-06T21:05:53.477Z,100167.95
2019-05-06T21:08:23.407Z,100163.83
2019-05-06T21:10:53.451Z,100164.39
2019-05-06T21:13:31.892Z,100157.27
2019-05-06T21:15:55.016Z,100161.11
2019-05-06T21:18:24.986Z,100152.06
2019-05-06T21:20:54.931Z,100157.02
2019-05-06T21:23:25.264Z,100145.73
2019-05-06T21:25:55.220Z,100147.95
2019-05-06T21:28:25.138Z,100147.14
2019-05-06T21:30:54.983Z,100137.80
2019-05-06T21:33:25.010Z,100133.41
2019-05-06T21:35:54.942Z,100131.78
2019-05-06T21:38:24.883Z,100133.39
2019-05-06T21:40:54.820Z,100135.63
2019-05-06T21:43:24.747Z,100135.08
2019-05-06T21:45:54.684Z,100125.73
2019-05-06T21:48:24.619Z,100124.39
2019-05-06T21:50:54.560Z,100119.44
2019-05-06T21:53:24.692Z,100127.95
2019-05-06T21:55:54.595Z,100123.53
2019-05-06T21:58:24.566Z,100123.25
2019-05-06T22:00:56.541Z,100122.41
2019-05-06T22:03:26.586Z,100121.62
2019-05-06T22:05:56.520Z,100124.61
2019-05-06T22:08:26.454Z,100119.97
2019-05-06T22:10:56.387Z,100120.22
2019-05-06T22:13:26.422Z,100121.33
2019-05-06T22:15:56.456Z,100116.11
2019-05-06T22:18:26.605Z,100117.47
2019-05-06T22:21:06.965Z,100115.56
2019-05-06T22:23:42.079Z,100118.86
2019-05-06T22:26:16.007Z,100116.66
2019-05-06T22:28:43.823Z,100115.02
2019-05-06T22:31:13.740Z,100107.89
2019-05-06T22:33:43.806Z,100112.00
2019-05-06T22:36:13.738Z,100113.91
2019-05-06T22:38:44.301Z,100113.08
2019-05-06T22:41:14.621Z,100111.71
2019-05-06T22:43:44.562Z,100104.58
2019-05-06T22:46:14.600Z,100112.00
2019-05-06T22:48:44.530Z,100110.35
2019-05-06T22:51:15.483Z,100118.85
2019-05-06T22:53:46.861Z,100119.41
2019-05-06T22:56:16.792Z,100122.41
2019-05-06T22:58:46.833Z,100119.13
2019-05-06T23:01:18.317Z,100114.72
2019-05-06T23:03:49.873Z,100121.59
2019-05-06T23:06:21.892Z,100117.72
2019-05-06T23:08:52.679Z,100125.94
2019-05-06T23:11:22.648Z,100119.63
2019-05-06T23:13:53.011Z,100116.61
2019-05-06T23:16:22.328Z,100117.42
2019-05-06T23:18:52.491Z,100114.42
2019-05-06T23:21:23.214Z,100104.30
2019-05-06T23:23:54.743Z,100105.37
2019-05-06T23:26:24.623Z,100104.80
2019-05-06T23:28:54.430Z,100106.17
2019-05-06T23:31:24.657Z,100098.52
2019-05-06T23:33:54.819Z,100098.23
2019-05-06T23:36:24.839Z,100095.48
2019-05-06T23:39:34.461Z,100088.11
2019-05-06T23:42:53.352Z,100092.75
2019-05-06T23:45:59.844Z,100097.39
2019-05-06T23:49:05.877Z,100086.96
2019-05-06T23:52:12.079Z,100081.50
2019-05-06T23:55:18.565Z,100084.50
2019-05-06T23:57:47.267Z,100086.12
